createdAt,value
2023-02-19T00:01:30.442Z,4.65
2023-02-19T00:04:13.923Z,4.20
2023-02-19T00:07:01.455Z,4.22
2023-02-19T00:09:48.472Z,3.95
2023-02-19T00:15:15.476Z,4.00
2023-02-19T00:17:55.518Z,4.07
2023-02-19T00:20:42.455Z,3.70
2023-02-19T00:23:29.468Z,3.33
2023-02-19T00:26:26.455Z,3.35
2023-02-19T00:29:13.552Z,3.88
2023-02-19T00:31:54.618Z,3.10
2023-02-19T00:34:41.487Z,2.95
2023-02-19T00:37:21.523Z,3.95
2023-02-19T00:40:08.467Z,2.88
2023-02-19T00:42:48.516Z,2.80
2023-02-19T00:45:35.452Z,3.30
2023-02-19T00:48:15.603Z,3.05
2023-02-19T00:51:02.469Z,3.30
2023-02-19T00:53:42.517Z,3.75
2023-02-19T00:56:29.470Z,3.40
2023-02-19T01:01:56.543Z,4.03
2023-02-19T01:04:43.488Z,3.17
2023-02-19T01:07:30.487Z,3.22
2023-02-19T01:10:11.518Z,3.83
2023-02-19T01:15:41.544Z,4.10
2023-02-19T01:18:28.461Z,3.80
2023-02-19T01:21:20.484Z,4.10
2023-02-19T01:24:07.517Z,3.60
2023-02-19T01:26:54.468Z,3.42
2023-02-19T01:29:34.543Z,3.60
2023-02-19T01:32:21.511Z,3.67
2023-02-19T01:37:48.453Z,3.65
2023-02-19T01:40:29.524Z,4.00
2023-02-19T01:43:22.458Z,4.00
2023-02-19T01:46:02.618Z,3.75
2023-02-19T01:48:49.468Z,4.13
2023-02-19T01:51:29.535Z,3.83
2023-02-19T01:54:19.486Z,3.63
2023-02-19T01:57:00.526Z,3.65
2023-02-19T01:59:48.470Z,3.67
2023-02-19T02:02:29.527Z,4.40
2023-02-19T02:05:24.472Z,3.72
2023-02-19T02:08:25.120Z,3.60
2023-02-19T02:11:12.827Z,3.70
2023-02-19T02:13:53.533Z,4.35
2023-02-19T02:17:01.462Z,3.63
2023-02-19T02:20:03.324Z,3.55
2023-02-19T02:23:00.462Z,3.90
2023-02-19T02:25:52.537Z,3.70
2023-02-19T02:28:51.471Z,3.58
2023-02-19T02:31:45.622Z,3.15
2023-02-19T02:34:41.481Z,3.55
2023-02-19T02:37:22.522Z,3.05
2023-02-19T02:40:12.481Z,3.45
2023-02-19T02:42:52.585Z,3.10
2023-02-19T02:45:42.529Z,3.00
2023-02-19T02:48:38.363Z,3.30
2023-02-19T02:51:38.498Z,3.60
2023-02-19T02:55:03.485Z,2.67
2023-02-19T02:57:50.490Z,2.50
2023-02-19T03:03:47.463Z,2.80
2023-02-19T03:06:30.533Z,2.75
2023-02-19T03:09:28.462Z,2.60
2023-02-19T03:12:35.489Z,2.50
2023-02-19T03:15:36.242Z,2.67
2023-02-19T03:18:42.478Z,2.78
2023-02-19T03:21:32.475Z,2.85
2023-02-19T03:24:42.497Z,2.67
2023-02-19T03:27:33.544Z,2.53
2023-02-19T03:30:20.529Z,2.65
2023-02-19T03:36:02.476Z,2.63
2023-02-19T03:38:52.732Z,2.70
2023-02-19T03:42:06.466Z,2.40
2023-02-19T03:44:59.494Z,2.58
2023-02-19T03:47:49.916Z,2.80
2023-02-19T03:50:50.474Z,2.90
2023-02-19T03:53:42.544Z,2.70
2023-02-19T03:56:45.491Z,2.83
2023-02-19T03:59:48.532Z,2.80
2023-02-19T04:03:03.494Z,2.55
2023-02-19T04:05:49.584Z,2.95
2023-02-19T04:08:40.460Z,2.65
2023-02-19T04:11:30.497Z,2.70
2023-02-19T04:14:31.488Z,2.75
2023-02-19T04:17:18.554Z,2.95
2023-02-19T04:20:08.479Z,2.75
2023-02-19T04:22:49.588Z,2.60
2023-02-19T04:25:37.482Z,2.63
2023-02-19T04:28:27.473Z,2.50
2023-02-19T04:31:14.951Z,2.75
2023-02-19T04:33:54.479Z,2.55
2023-02-19T04:36:41.542Z,2.80
2023-02-19T04:39:21.460Z,2.60
2023-02-19T04:42:02.131Z,2.70
2023-02-19T04:44:41.472Z,2.90
2023-02-19T04:47:21.534Z,2.80
2023-02-19T04:50:08.493Z,2.90
2023-02-19T04:55:35.481Z,2.88
2023-02-19T05:01:02.473Z,2.70
2023-02-19T05:06:36.520Z,2.38
2023-02-19T05:11:56.960Z,2.50
2023-02-19T05:14:43.486Z,2.50
2023-02-19T05:20:10.602Z,2.58
2023-02-19T05:22:58.498Z,1.80
2023-02-19T05:25:52.470Z,2.45
2023-02-19T05:28:39.489Z,2.20
2023-02-19T05:34:06.487Z,2.47
2023-02-19T05:39:33.475Z,2.00
2023-02-19T05:45:00.489Z,2.60
2023-02-19T05:47:40.559Z,2.78
2023-02-19T05:50:27.491Z,2.30
2023-02-19T05:53:25.493Z,2.45
2023-02-19T05:56:31.598Z,2.58
2023-02-19T05:59:14.459Z,2.40
2023-02-19T06:01:55.649Z,2.90
2023-02-19T06:07:29.558Z,2.78
2023-02-19T06:10:09.477Z,3.22
2023-02-19T06:12:59.557Z,3.40
2023-02-19T06:15:39.482Z,3.05
2023-02-19T06:18:19.967Z,3.83
2023-02-19T06:21:06.494Z,3.30
2023-02-19T06:23:53.470Z,3.00
2023-02-19T06:26:33.573Z,3.42
2023-02-19T06:29:20.483Z,3.60
2023-02-19T06:32:14.530Z,3.65
2023-02-19T06:34:54.980Z,3.75
2023-02-19T06:37:42.456Z,3.80
2023-02-19T06:40:23.001Z,3.47
2023-02-19T06:43:09.513Z,3.50
2023-02-19T06:45:56.569Z,3.55
2023-02-19T06:48:37.508Z,3.40
2023-02-19T06:54:08.489Z,3.75
2023-02-19T06:56:58.880Z,4.35
2023-02-19T06:59:38.508Z,4.22
2023-02-19T07:02:18.987Z,3.95
2023-02-19T07:05:05.522Z,4.03
2023-02-19T07:07:46.356Z,3.90
2023-02-19T07:13:20.492Z,4.15
2023-02-19T07:16:09.876Z,3.88
2023-02-19T07:18:57.498Z,4.10
2023-02-19T07:21:44.479Z,3.78
2023-02-19T07:24:31.486Z,4.18
2023-02-19T07:27:11.540Z,4.38
2023-02-19T07:29:58.491Z,4.25
2023-02-19T07:32:45.489Z,4.47
2023-02-19T07:35:32.470Z,4.22
2023-02-19T07:38:19.488Z,4.65
2023-02-19T07:41:02.540Z,3.95
2023-02-19T07:43:51.490Z,5.15
2023-02-19T07:46:38.496Z,4.10
2023-02-19T07:49:18.540Z,5.05
2023-02-19T07:52:05.485Z,4.60
2023-02-19T07:54:52.532Z,4.03
2023-02-19T07:57:39.513Z,4.18
2023-02-19T08:00:27.557Z,4.40
2023-02-19T08:03:08.160Z,4.00
2023-02-19T08:05:57.493Z,4.70
2023-02-19T08:08:45.477Z,4.80
2023-02-19T08:11:44.479Z,5.28
2023-02-19T08:14:33.490Z,4.35
2023-02-19T08:17:20.529Z,4.88
2023-02-19T08:20:07.509Z,5.65
2023-02-19T08:22:47.547Z,5.18
2023-02-19T08:25:34.499Z,5.70
2023-02-19T08:28:28.478Z,4.90
2023-02-19T08:31:17.688Z,5.07
2023-02-19T08:33:57.488Z,5.10
2023-02-19T08:36:38.563Z,5.10
2023-02-19T08:39:25.491Z,4.90
2023-02-19T08:42:07.172Z,4.80
2023-02-19T08:47:43.537Z,5.28
2023-02-19T08:50:23.517Z,5.07
2023-02-19T08:53:11.539Z,5.07
2023-02-19T08:55:51.497Z,5.43
2023-02-19T08:58:39.485Z,5.28
2023-02-19T09:01:30.504Z,5.82
2023-02-19T09:04:19.526Z,5.40
2023-02-19T09:07:07.482Z,5.20
2023-02-19T09:09:48.009Z,5.30
2023-02-19T09:12:34.479Z,5.63
2023-02-19T09:15:15.303Z,5.70
2023-02-19T09:18:07.498Z,5.28
2023-02-19T09:20:47.954Z,6.10
2023-02-19T09:23:34.519Z,5.55
2023-02-19T09:29:15.501Z,5.63
2023-02-19T09:34:49.514Z,5.25
2023-02-19T09:40:21.524Z,5.53
2023-02-19T09:43:01.951Z,5.47
2023-02-19T09:45:48.499Z,4.80
2023-02-19T09:51:17.498Z,4.07
2023-02-19T09:54:00.566Z,4.50
2023-02-19T09:56:47.493Z,3.88
2023-02-19T10:02:25.512Z,2.70
2023-02-19T10:05:22.576Z,2.40
2023-02-19T10:08:09.526Z,2.20
2023-02-19T10:13:38.489Z,2.22
2023-02-19T10:16:32.509Z,1.92
2023-02-19T10:19:23.502Z,2.00
2023-02-19T10:22:11.507Z,1.88
2023-02-19T10:24:52.537Z,1.52
2023-02-19T10:30:27.616Z,1.50
2023-02-19T10:33:19.508Z,1.70
2023-02-19T10:36:32.141Z,1.42
2023-02-19T10:39:28.483Z,1.60
2023-02-19T10:42:09.552Z,1.95
2023-02-19T10:45:08.482Z,1.70
2023-02-19T10:48:00.512Z,1.52
2023-02-19T10:50:44.535Z,1.52
2023-02-19T10:53:37.510Z,1.80
2023-02-19T10:56:26.988Z,1.50
2023-02-19T10:59:31.515Z,1.67
2023-02-19T11:02:26.592Z,1.70
2023-02-19T11:05:16.523Z,1.60
2023-02-19T11:08:03.498Z,2.15
2023-02-19T11:13:44.503Z,1.50
2023-02-19T11:16:24.626Z,1.50
2023-02-19T11:19:11.502Z,1.10
2023-02-19T11:24:44.486Z,1.27
2023-02-19T11:27:38.496Z,1.27
2023-02-19T11:30:37.530Z,1.15
2023-02-19T11:33:30.524Z,1.20
2023-02-19T11:36:19.834Z,1.48
2023-02-19T11:39:08.514Z,1.00
2023-02-19T11:42:21.429Z,1.10
2023-02-19T11:45:26.523Z,1.20
2023-02-19T11:48:17.687Z,1.02
2023-02-19T11:51:04.503Z,1.23
2023-02-19T11:54:12.516Z,1.40
2023-02-19T11:57:25.546Z,1.45
2023-02-19T12:00:22.509Z,1.92
2023-02-19T12:03:15.163Z,1.00
2023-02-19T12:06:14.512Z,1.08
2023-02-19T12:09:17.584Z,0.90
2023-02-19T12:12:18.510Z,0.80
2023-02-19T12:15:31.918Z,0.93
2023-02-19T12:18:27.530Z,0.95
2023-02-19T12:21:36.470Z,0.82
2023-02-19T12:24:35.526Z,0.88
2023-02-19T12:27:28.567Z,0.98
2023-02-19T12:30:35.533Z,1.10
2023-02-19T12:33:28.502Z,0.80
2023-02-19T12:36:27.558Z,0.50
2023-02-19T12:39:38.504Z,0.60
2023-02-19T12:42:34.546Z,0.75
2023-02-19T12:45:36.552Z,0.70
2023-02-19T12:48:43.023Z,0.80
2023-02-19T12:51:40.519Z,0.75
2023-02-19T12:54:29.663Z,0.80
2023-02-19T12:57:28.523Z,0.80
2023-02-19T13:00:34.661Z,0.90
2023-02-19T13:03:27.529Z,1.00
2023-02-19T13:06:29.508Z,0.90
2023-02-19T13:09:29.207Z,0.95
2023-02-19T13:12:19.522Z,0.80
2023-02-19T13:15:02.748Z,0.80
2023-02-19T13:17:58.653Z,1.00
2023-02-19T13:20:43.332Z,0.80
2023-02-19T13:23:59.531Z,0.90
2023-02-19T13:27:04.192Z,0.75
2023-02-19T13:30:15.632Z,0.70
2023-02-19T13:33:23.689Z,0.88
2023-02-19T13:36:19.520Z,0.70
2023-02-19T13:39:00.519Z,0.90
2023-02-19T13:41:52.502Z,0.88
2023-02-19T13:44:47.947Z,0.90
2023-02-19T13:48:09.753Z,0.77
2023-02-19T13:51:17.520Z,0.55
2023-02-19T13:54:11.501Z,0.70
2023-02-19T13:57:17.816Z,0.68
2023-02-19T14:00:08.513Z,0.80
2023-02-19T14:02:49.035Z,0.73
2023-02-19T14:06:13.540Z,0.47
2023-02-19T14:09:00.224Z,0.60
2023-02-19T14:11:55.510Z,0.70
2023-02-19T14:14:49.636Z,0.52
2023-02-19T14:17:29.510Z,0.80
2023-02-19T14:20:09.954Z,0.65
2023-02-19T14:23:14.534Z,0.70
2023-02-19T14:25:59.282Z,0.75
2023-02-19T14:28:54.544Z,0.70
2023-02-19T14:31:44.658Z,0.60
2023-02-19T14:34:31.528Z,0.65
2023-02-19T14:40:05.528Z,0.47
2023-02-19T14:42:52.521Z,0.60
2023-02-19T14:45:34.588Z,0.43
2023-02-19T14:48:32.522Z,0.60
2023-02-19T14:51:51.262Z,0.52
2023-02-19T14:54:49.517Z,0.60
2023-02-19T14:57:50.604Z,0.40
2023-02-19T15:00:43.508Z,0.40
2023-02-19T15:03:49.517Z,0.55
2023-02-19T15:06:38.505Z,0.50
2023-02-19T15:09:26.518Z,0.60
2023-02-19T15:12:14.515Z,0.50
2023-02-19T15:14:56.572Z,0.40
2023-02-19T15:17:46.497Z,0.60
2023-02-19T15:20:32.581Z,0.57
2023-02-19T15:23:29.513Z,0.52
2023-02-19T15:26:09.574Z,0.60
2023-02-19T15:29:24.526Z,0.47
2023-02-19T15:32:13.545Z,0.60
2023-02-19T15:35:03.521Z,0.70
2023-02-19T15:37:44.566Z,0.80
2023-02-19T15:40:37.538Z,0.70
2023-02-19T15:43:31.583Z,0.60
2023-02-19T15:46:27.546Z,0.65
2023-02-19T15:49:10.596Z,0.40
2023-02-19T15:52:25.534Z,0.80
2023-02-19T15:55:33.633Z,0.82
2023-02-19T15:58:46.545Z,0.98
2023-02-19T16:01:46.611Z,0.73
2023-02-19T16:04:33.519Z,0.90
2023-02-19T16:10:22.433Z,0.70
2023-02-19T16:13:14.542Z,0.85
2023-02-19T16:16:01.072Z,1.25
2023-02-19T16:18:48.559Z,1.00
2023-02-19T16:21:35.585Z,0.98
2023-02-19T16:27:46.546Z,1.23
2023-02-19T16:30:37.581Z,1.27
2023-02-19T16:33:58.553Z,1.30
2023-02-19T16:36:48.518Z,1.30
2023-02-19T16:39:29.630Z,1.27
2023-02-19T16:42:21.523Z,1.40
2023-02-19T16:45:01.617Z,1.50
2023-02-19T16:47:57.545Z,1.30
2023-02-19T16:50:49.523Z,1.60
2023-02-19T16:53:33.051Z,1.20
2023-02-19T16:56:29.531Z,1.20
2023-02-19T16:59:17.565Z,1.50
2023-02-19T17:02:04.521Z,1.65
2023-02-19T17:07:33.522Z,1.65
2023-02-19T17:10:13.599Z,1.60
2023-02-19T17:13:02.529Z,1.63
2023-02-19T17:15:42.585Z,1.40
2023-02-19T17:18:29.550Z,1.60
2023-02-19T17:21:47.553Z,1.50
2023-02-19T17:24:34.554Z,1.83
2023-02-19T17:30:17.687Z,1.90
2023-02-19T17:35:51.848Z,1.75
2023-02-19T17:38:31.552Z,1.40
2023-02-19T17:41:18.598Z,1.65
2023-02-19T17:43:59.546Z,1.80
2023-02-19T17:46:40.520Z,1.70
2023-02-19T17:49:27.548Z,1.60
2023-02-19T17:52:08.359Z,1.80
2023-02-19T17:57:36.347Z,1.77
2023-02-19T18:00:24.522Z,1.80
2023-02-19T18:03:13.553Z,1.80
2023-02-19T18:06:00.530Z,1.60
2023-02-19T18:08:56.525Z,1.58
2023-02-19T18:11:43.540Z,1.40
2023-02-19T18:14:24.004Z,1.50
2023-02-19T18:17:10.543Z,2.00
2023-02-19T18:22:37.554Z,1.55
2023-02-19T18:28:04.505Z,1.27
2023-02-19T18:33:31.594Z,1.50
2023-02-19T18:36:19.561Z,1.33
2023-02-19T18:38:59.610Z,1.45
2023-02-19T18:41:46.558Z,1.40
2023-02-19T18:47:17.539Z,1.25
2023-02-19T18:49:59.792Z,1.30
2023-02-19T18:52:46.541Z,1.27
2023-02-19T18:58:13.548Z,1.30
2023-02-19T19:01:00.586Z,1.30
2023-02-19T19:06:27.545Z,1.42
2023-02-19T19:12:01.534Z,1.30
2023-02-19T19:14:49.554Z,1.50
2023-02-19T19:17:36.543Z,1.40
2023-02-19T19:20:26.599Z,1.30
2023-02-19T19:23:06.550Z,1.38
2023-02-19T19:25:47.054Z,1.50
2023-02-19T19:28:33.554Z,1.40
2023-02-19T19:34:01.632Z,1.73
2023-02-19T19:36:48.555Z,1.40
2023-02-19T19:42:22.551Z,1.50
2023-02-19T19:47:49.558Z,1.70
2023-02-19T19:53:16.574Z,1.60
2023-02-19T19:55:56.610Z,1.55
2023-02-19T19:58:43.537Z,1.80
2023-02-19T20:04:11.559Z,1.70
2023-02-19T20:06:58.556Z,1.90
2023-02-19T20:12:25.592Z,1.98
2023-02-19T20:15:13.554Z,1.83
2023-02-19T20:17:53.707Z,1.83
2023-02-19T20:20:40.544Z,2.13
2023-02-19T20:23:20.603Z,1.92
2023-02-19T20:26:07.602Z,1.92
2023-02-19T20:31:34.642Z,2.28
2023-02-19T20:34:15.235Z,2.78
2023-02-19T20:37:02.549Z,2.70
2023-02-19T20:39:43.097Z,2.50
2023-02-19T20:42:29.554Z,2.47
2023-02-19T20:48:03.551Z,2.70
2023-02-19T20:50:50.548Z,2.80
2023-02-19T20:53:30.721Z,2.47
2023-02-19T20:56:18.526Z,2.95
2023-02-19T20:58:58.622Z,2.95
2023-02-19T21:01:45.617Z,2.75
2023-02-19T21:04:25.591Z,2.25
2023-02-19T21:07:12.562Z,2.20
2023-02-19T21:12:47.559Z,2.67
2023-02-19T21:15:34.533Z,2.70
2023-02-19T21:18:22.575Z,2.50
2023-02-19T21:21:02.611Z,2.75
2023-02-19T21:23:49.529Z,2.33
2023-02-19T21:26:37.545Z,2.58
2023-02-19T21:29:27.698Z,2.70
2023-02-19T21:32:07.667Z,2.40
2023-02-19T21:34:54.922Z,2.70
2023-02-19T21:37:35.558Z,2.35
2023-02-19T21:40:16.217Z,2.40
2023-02-19T21:43:02.603Z,2.50
2023-02-19T21:45:43.082Z,2.45
2023-02-19T21:48:29.549Z,2.45
2023-02-19T21:51:10.333Z,2.40
2023-02-19T21:53:56.559Z,2.10
2023-02-19T21:56:43.576Z,2.88
2023-02-19T22:02:11.238Z,2.60
2023-02-19T22:04:57.562Z,2.33
2023-02-19T22:07:44.537Z,2.20
2023-02-19T22:10:24.674Z,2.50
2023-02-19T22:13:11.535Z,2.47
2023-02-19T22:18:38.559Z,2.50
2023-02-19T22:24:06.555Z,2.40
2023-02-19T22:26:46.608Z,2.13
2023-02-19T22:29:33.563Z,2.42
2023-02-19T22:32:13.742Z,2.50
2023-02-19T22:35:00.554Z,2.53
2023-02-19T22:37:40.600Z,2.80
2023-02-19T22:40:27.548Z,2.30
2023-02-19T22:43:14.565Z,3.03
2023-02-19T22:46:01.624Z,2.60
2023-02-19T22:48:41.602Z,2.60
2023-02-19T22:51:30.557Z,2.75
2023-02-19T22:54:17.531Z,2.80
2023-02-19T22:56:58.257Z,3.03
2023-02-19T22:59:44.544Z,2.85
2023-02-19T23:02:25.065Z,2.88
2023-02-19T23:05:11.540Z,3.30
2023-02-19T23:07:52.080Z,3.08
2023-02-19T23:10:38.549Z,2.80
2023-02-19T23:13:25.763Z,3.20
2023-02-19T23:16:05.562Z,2.85
2023-02-19T23:18:46.410Z,2.95
2023-02-19T23:24:15.833Z,3.47
2023-02-19T23:29:50.603Z,3.50
2023-02-19T23:32:30.550Z,3.50
2023-02-19T23:35:17.565Z,3.75
2023-02-19T23:37:57.654Z,3.60
2023-02-19T23:40:44.541Z,3.63
2023-02-19T23:43:31.557Z,4.20
2023-02-19T23:46:17.960Z,4.50
2023-02-19T23:49:04.538Z,4.10
2023-02-19T23:51:52.539Z,4.03
2023-02-19T23:54:32.626Z,3.83
2023-02-19T23:57:19.556Z,3.92
